Time;durP1;ratioP1;P1;durP2;ratioP2;P2;SDS_P1;SDS_P2;PMS_P1;PMS_P2;Temp;Humidity;BMP_temperature;BMP_pressure;BME280_temperature;BME280_humidity;BME280_pressure;Samples;Min_cycle;Max_cycle;Signal;HPM_P1;HPM_P2
2021/06/28 00:00:42;;;;;;;11.10;8.90;;;15.90;90.70;;;;;;5093959;28;20044;-67
2021/06/28 00:03:08;;;;;;;11.37;8.40;;;15.90;90.70;;;;;;5092915;28;20492;-67
2021/06/28 00:05:34;;;;;;;11.70;8.73;;;15.90;90.80;;;;;;5093752;28;20048;-67
2021/06/28 00:08:00;;;;;;;13.97;8.40;;;15.90;90.80;;;;;;5093803;28;20048;-66
2021/06/28 00:10:28;;;;;;;12.53;8.23;;;15.90;90.90;;;;;;5092517;28;20060;-67
2021/06/28 00:12:57;;;;;;;13.20;9.03;;;15.90;90.90;;;;;;5093755;28;20143;-66
2021/06/28 00:15:29;;;;;;;10.20;8.50;;;15.90;91.00;;;;;;5093452;28;20044;-67
2021/06/28 00:17:56;;;;;;;10.70;8.43;;;15.90;91.10;;;;;;5092978;28;20393;-66
2021/06/28 00:20:22;;;;;;;12.70;9.30;;;15.90;91.10;;;;;;5093297;28;20048;-66
2021/06/28 00:22:48;;;;;;;11.43;8.90;;;15.90;91.20;;;;;;5093397;28;20511;-66
2021/06/28 00:25:18;;;;;;;9.73;8.53;;;15.80;91.30;;;;;;5092373;28;20109;-66
2021/06/28 00:27:45;;;;;;;13.23;8.67;;;15.80;91.30;;;;;;5094127;28;20400;-66
2021/06/28 00:30:17;;;;;;;10.87;8.73;;;15.80;91.40;;;;;;5092995;28;20108;-66
2021/06/28 00:32:44;;;;;;;10.00;7.83;;;15.80;91.50;;;;;;5092554;28;20467;-66
2021/06/28 00:35:11;;;;;;;12.13;9.27;;;15.80;91.50;;;;;;5093052;28;20079;-65
2021/06/28 00:37:38;;;;;;;11.53;8.97;;;15.80;91.60;;;;;;5093363;28;20456;-66
2021/06/28 00:40:06;;;;;;;11.93;8.50;;;15.80;91.60;;;;;;5092463;28;20040;-66
2021/06/28 00:42:32;;;;;;;12.33;8.57;;;15.80;91.60;;;;;;5092746;28;20059;-66
2021/06/28 00:44:58;;;;;;;11.90;8.23;;;15.80;91.70;;;;;;5092977;28;20058;-67
2021/06/28 00:47:24;;;;;;;12.80;8.80;;;15.80;91.70;;;;;;5091955;28;20040;-66
2021/06/28 00:49:50;;;;;;;11.10;8.53;;;15.80;91.70;;;;;;5092964;28;20066;-67
2021/06/28 00:52:16;;;;;;;12.30;7.60;;;15.80;91.70;;;;;;5092559;28;20048;-66
2021/06/28 00:54:42;;;;;;;11.67;8.30;;;15.80;91.80;;;;;;5092209;28;20075;-66
2021/06/28 00:57:08;;;;;;;9.80;8.60;;;15.80;91.80;;;;;;5092853;28;20048;-66
2021/06/28 00:59:34;;;;;;;10.10;8.53;;;15.80;91.80;;;;;;5091976;28;20149;-66
2021/06/28 01:02:02;;;;;;;11.13;8.53;;;15.80;91.80;;;;;;5092773;28;20495;-66
2021/06/28 01:04:37;;;;;;;11.33;8.40;;;15.70;91.80;;;;;;5092959;28;20048;-66
2021/06/28 01:07:02;;;;;;;10.77;8.00;;;15.70;91.90;;;;;;5092117;28;20074;-66
2021/06/28 01:09:28;;;;;;;12.80;8.10;;;15.70;92.00;;;;;;5092544;28;20080;-66
2021/06/28 01:11:54;;;;;;;10.67;8.80;;;15.70;92.00;;;;;;5092690;28;20416;-66
2021/06/28 01:14:19;;;;;;;10.87;8.53;;;15.70;92.10;;;;;;5091671;28;20404;-66
2021/06/28 01:16:45;;;;;;;12.43;8.60;;;15.70;92.10;;;;;;5092447;28;20117;-67
2021/06/28 01:19:13;;;;;;;11.33;8.50;;;15.70;92.10;;;;;;5092505;28;20044;-67
2021/06/28 01:21:44;;;;;;;15.00;9.10;;;15.70;92.10;;;;;;5092247;28;20257;-67
2021/06/28 01:24:11;;;;;;;9.45;7.85;;;15.70;92.20;;;;;;5092129;28;20056;-67
2021/06/28 01:26:37;;;;;;;13.03;8.50;;;15.70;92.10;;;;;;5092631;28;20040;-67
2021/06/28 01:29:04;;;;;;;12.97;8.43;;;15.70;92.20;;;;;;5091704;28;20493;-67
2021/06/28 01:31:29;;;;;;;12.20;8.83;;;15.70;92.20;;;;;;5091959;28;20083;-66
2021/06/28 01:33:55;;;;;;;11.33;8.63;;;15.70;92.30;;;;;;5092611;28;20044;-66
2021/06/28 01:36:21;;;;;;;12.67;9.03;;;15.70;92.30;;;;;;5091462;28;20090;-66
2021/06/28 01:38:48;;;;;;;13.53;9.20;;;15.70;92.30;;;;;;5092441;28;20052;-66
2021/06/28 01:41:14;;;;;;;13.17;9.23;;;15.70;92.30;;;;;;5092320;28;20052;-67
2021/06/28 01:43:42;;;;;;;14.30;9.30;;;15.70;92.40;;;;;;5091608;28;20055;-67
2021/06/28 01:46:08;;;;;;;12.57;8.73;;;15.80;92.40;;;;;;5092407;28;20044;-67
2021/06/28 01:48:37;;;;;;;12.63;8.63;;;15.70;92.50;;;;;;5091692;28;20044;-66
2021/06/28 01:51:04;;;;;;;12.30;8.43;;;15.80;92.50;;;;;;5092374;28;20048;-67
2021/06/28 01:53:30;;;;;;;13.83;9.67;;;15.70;92.50;;;;;;5091844;28;20054;-67
2021/06/28 01:55:56;;;;;;;13.80;9.43;;;15.80;92.60;;;;;;5091672;28;20044;-67
2021/06/28 01:58:22;;;;;;;15.03;9.63;;;15.80;92.60;;;;;;5091998;28;20146;-67
2021/06/28 02:00:51;;;;;;;16.47;9.10;;;15.80;92.60;;;;;;5092523;28;20094;-66
2021/06/28 02:03:19;;;;;;;14.70;9.47;;;15.80;92.70;;;;;;5090960;28;20068;-66
2021/06/28 02:05:50;;;;;;;10.90;8.57;;;15.80;92.60;;;;;;5092776;28;20060;-67
2021/06/28 02:08:18;;;;;;;12.68;9.20;;;15.80;92.70;;;;;;5095675;28;20048;-67
2021/06/28 02:10:48;;;;;;;11.97;7.80;;;15.80;92.70;;;;;;5095293;28;20055;-66
2021/06/28 02:13:15;;;;;;;12.67;10.13;;;15.80;92.70;;;;;;5095654;28;20076;-66
2021/06/28 02:15:40;;;;;;;11.70;8.90;;;15.80;92.80;;;;;;5095882;28;20404;-66
2021/06/28 02:18:07;;;;;;;11.57;8.83;;;15.80;92.90;;;;;;5095309;28;20044;-66
2021/06/28 02:20:33;;;;;;;16.83;9.43;;;15.80;92.90;;;;;;5095378;28;20480;-66
2021/06/28 02:23:22;;;;;;;13.43;9.87;;;15.90;92.90;;;;;;5095479;28;20051;-67
2021/06/28 02:26:11;;;;;;;11.93;9.10;;;15.90;92.90;;;;;;5094699;28;20108;-66
2021/06/28 02:28:42;;;;;;;12.43;8.10;;;15.90;92.80;;;;;;5095743;28;20123;-67
2021/06/28 02:31:10;;;;;;;13.85;9.90;;;15.90;92.90;;;;;;5094882;28;20052;-66
2021/06/28 02:33:39;;;;;;;12.13;9.10;;;15.90;93.00;;;;;;5095427;28;20071;-66
2021/06/28 02:36:05;;;;;;;12.83;10.43;;;15.90;93.10;;;;;;5094821;28;20484;-66
2021/06/28 02:38:42;;;;;;;13.17;9.57;;;15.90;93.20;;;;;;5094504;28;20067;-66
2021/06/28 02:41:09;;;;;;;11.53;9.83;;;15.90;93.10;;;;;;5095532;28;20048;-66
2021/06/28 02:43:35;;;;;;;14.90;9.63;;;15.90;93.20;;;;;;5095453;28;20483;-66
2021/06/28 02:46:01;;;;;;;17.40;10.60;;;15.80;93.20;;;;;;5094525;28;20048;-67
2021/06/28 02:48:27;;;;;;;15.10;9.87;;;15.80;93.30;;;;;;5094839;28;20059;-67
2021/06/28 02:50:53;;;;;;;14.53;11.07;;;15.80;93.40;;;;;;5095351;28;20048;-67
2021/06/28 02:53:20;;;;;;;12.17;9.63;;;15.80;93.40;;;;;;5094283;28;20051;-67
2021/06/28 02:55:47;;;;;;;14.43;9.20;;;15.80;93.40;;;;;;5095106;28;20055;-67
2021/06/28 02:58:14;;;;;;;12.13;10.83;;;15.80;93.40;;;;;;5094879;28;20400;-67
2021/06/28 03:00:40;;;;;;;15.23;11.87;;;15.90;93.40;;;;;;5094252;28;20044;-67
2021/06/28 03:03:06;;;;;;;16.57;12.80;;;15.90;93.30;;;;;;5094876;28;20040;-67
2021/06/28 03:05:32;;;;;;;16.57;11.90;;;15.80;93.30;;;;;;5094754;28;20048;-67
2021/06/28 03:07:58;;;;;;;20.10;12.23;;;15.80;93.40;;;;;;5094376;28;20040;-67
2021/06/28 03:10:23;;;;;;;19.60;13.90;;;15.70;93.40;;;;;;5094592;28;20055;-67
2021/06/28 03:12:49;;;;;;;17.37;12.70;;;15.70;93.50;;;;;;5094973;28;20124;-67
2021/06/28 03:15:17;;;;;;;15.97;11.90;;;15.70;93.50;;;;;;5093660;28;20093;-66
2021/06/28 03:17:46;;;;;;;15.67;12.77;;;15.70;93.50;;;;;;5094248;28;20531;-66
2021/06/28 03:20:14;;;;;;;15.47;10.70;;;15.70;93.60;;;;;;5093738;28;20142;-65
2021/06/28 03:22:41;;;;;;;16.17;12.67;;;15.70;93.60;;;;;;5094549;28;20503;-66
2021/06/28 03:25:10;;;;;;;17.37;12.27;;;15.70;93.70;;;;;;5094209;28;20189;-66
2021/06/28 03:27:35;;;;;;;14.93;12.53;;;15.70;93.80;;;;;;5093645;28;20050;-67
2021/06/28 03:30:03;;;;;;;18.67;12.77;;;15.70;93.80;;;;;;5094356;28;20044;-66
2021/06/28 03:32:29;;;;;;;16.47;12.77;;;15.70;93.80;;;;;;5094272;28;20054;-67
2021/06/28 03:34:55;;;;;;;19.57;12.67;;;15.80;93.80;;;;;;5093733;28;20134;-66
2021/06/28 03:37:20;;;;;;;15.67;11.53;;;15.80;93.80;;;;;;5094188;28;20040;-65
2021/06/28 03:39:46;;;;;;;17.50;12.00;;;15.90;93.80;;;;;;5094403;28;20051;-66
2021/06/28 03:42:12;;;;;;;15.73;11.83;;;15.90;93.80;;;;;;5093217;28;20044;-66
2021/06/28 03:44:38;;;;;;;17.87;12.47;;;15.90;93.70;;;;;;5094033;28;20079;-66
2021/06/28 03:47:03;;;;;;;17.20;12.43;;;15.90;93.70;;;;;;5094221;28;20105;-66
2021/06/28 03:49:29;;;;;;;14.90;11.90;;;16.00;93.70;;;;;;5093082;28;20052;-67
2021/06/28 03:51:55;;;;;;;15.13;11.90;;;16.00;93.70;;;;;;5093833;28;20102;-67
2021/06/28 03:54:20;;;;;;;18.57;13.43;;;16.00;93.70;;;;;;5093776;28;20068;-67
2021/06/28 03:56:46;;;;;;;19.73;12.53;;;16.00;93.70;;;;;;5093235;28;20098;-67
2021/06/28 03:59:12;;;;;;;15.30;12.87;;;16.00;93.80;;;;;;5093401;28;20455;-67
2021/06/28 04:01:38;;;;;;;14.73;12.33;;;16.10;93.80;;;;;;5093890;28;20078;-67
2021/06/28 04:04:04;;;;;;;20.03;12.07;;;16.10;93.80;;;;;;5093173;28;20048;-67
2021/06/28 04:06:30;;;;;;;20.27;12.83;;;16.20;93.80;;;;;;5093580;28;20048;-67
2021/06/28 04:08:56;;;;;;;17.97;13.03;;;16.20;93.80;;;;;;5093787;28;20055;-67
2021/06/28 04:11:22;;;;;;;13.07;10.70;;;16.20;93.80;;;;;;5092709;28;20044;-67
2021/06/28 04:13:47;;;;;;;13.87;11.03;;;16.30;93.80;;;;;;5093586;28;20059;-67
2021/06/28 04:16:13;;;;;;;12.67;10.70;;;16.30;93.70;;;;;;5093305;28;20481;-67
2021/06/28 04:18:39;;;;;;;13.40;11.90;;;16.40;93.80;;;;;;5092912;28;20408;-66
2021/06/28 04:21:05;;;;;;;14.83;12.13;;;16.40;93.70;;;;;;5093456;28;20055;-67
2021/06/28 04:23:30;;;;;;;17.43;13.00;;;16.50;93.70;;;;;;5092250;28;20185;-67
2021/06/28 04:25:56;;;;;;;15.00;11.53;;;16.50;93.70;;;;;;5093192;28;20567;-67
2021/06/28 04:28:22;;;;;;;14.57;12.33;;;16.50;93.60;;;;;;5092446;28;20052;-68
2021/06/28 04:30:48;;;;;;;14.10;11.97;;;16.60;93.60;;;;;;5092673;28;20048;-67
2021/06/28 04:33:13;;;;;;;15.73;11.33;;;16.60;93.50;;;;;;5092781;28;20040;-67
2021/06/28 04:35:40;;;;;;;13.67;11.30;;;16.60;93.50;;;;;;5093356;28;20109;-67
2021/06/28 04:38:06;;;;;;;12.77;10.73;;;16.60;93.90;;;;;;5092487;28;20488;-67
2021/06/28 04:40:33;;;;;;;14.93;10.27;;;16.60;93.50;;;;;;5092692;28;20499;-67
2021/06/28 04:42:59;;;;;;;14.73;10.97;;;16.60;93.40;;;;;;5093020;28;20055;-66
2021/06/28 04:45:26;;;;;;;16.00;10.37;;;16.60;93.40;;;;;;5091728;28;20545;-66
2021/06/28 04:47:53;;;;;;;16.87;10.57;;;16.70;93.50;;;;;;5092756;28;20047;-67
2021/06/28 04:50:23;;;;;;;13.40;9.53;;;16.70;93.50;;;;;;5092440;28;20492;-67
2021/06/28 04:52:52;;;;;;;20.30;11.30;;;16.70;93.40;;;;;;5092164;28;20101;-67
2021/06/28 04:55:19;;;;;;;15.80;11.33;;;16.70;93.80;;;;;;5092617;28;20055;-66
2021/06/28 04:57:45;;;;;;;18.20;12.50;;;16.60;93.50;;;;;;5092963;28;20047;-66
2021/06/28 05:00:15;;;;;;;14.47;10.43;;;16.60;93.50;;;;;;5091966;28;20393;-67
2021/06/28 05:02:40;;;;;;;14.20;11.47;;;16.60;93.50;;;;;;5092814;28;20044;-67
2021/06/28 05:05:07;;;;;;;14.90;12.00;;;16.70;93.50;;;;;;5092587;28;20048;-67
2021/06/28 05:07:32;;;;;;;14.07;11.77;;;16.60;93.50;;;;;;5091676;28;20052;-67
2021/06/28 05:09:58;;;;;;;15.03;11.43;;;16.70;93.50;;;;;;5092404;28;20067;-67
2021/06/28 05:12:24;;;;;;;13.87;11.20;;;16.70;93.60;;;;;;5092355;28;20044;-66
2021/06/28 05:14:50;;;;;;;16.13;12.53;;;16.70;93.50;;;;;;5091873;28;20066;-65
2021/06/28 05:17:15;;;;;;;15.43;11.60;;;16.70;93.90;;;;;;5090976;28;20055;-66
2021/06/28 05:19:41;;;;;;;14.40;12.37;;;16.80;93.60;;;;;;5091931;28;20481;-66
2021/06/28 05:22:07;;;;;;;14.50;11.73;;;16.80;93.60;;;;;;5092312;28;20377;-66
2021/06/28 05:24:33;;;;;;;14.67;11.47;;;16.80;93.50;;;;;;5091776;28;20055;-66
2021/06/28 05:26:59;;;;;;;15.87;12.20;;;16.90;93.50;;;;;;5091984;28;20040;-66
2021/06/28 05:29:25;;;;;;;12.37;9.60;;;16.90;93.50;;;;;;5092021;28;20048;-66
2021/06/28 05:31:50;;;;;;;12.30;10.60;;;17.00;93.50;;;;;;5092343;28;20507;-66
2021/06/28 05:34:16;;;;;;;15.00;11.50;;;17.00;93.40;;;;;;5091354;28;20511;-66
2021/06/28 05:36:42;;;;;;;16.60;11.00;;;17.00;93.40;;;;;;5092253;28;20047;-66
2021/06/28 05:39:08;;;;;;;14.10;11.17;;;17.00;93.30;;;;;;5092152;28;20052;-66
2021/06/28 05:41:33;;;;;;;12.73;10.47;;;17.00;93.30;;;;;;5095347;28;20130;-66
2021/06/28 05:43:59;;;;;;;11.73;10.53;;;17.10;93.20;;;;;;5096500;28;20139;-67
2021/06/28 05:46:25;;;;;;;12.93;10.87;;;17.10;93.20;;;;;;5096129;28;20044;-66
2021/06/28 05:48:51;;;;;;;13.30;10.70;;;17.10;93.10;;;;;;5095144;28;20544;-66
2021/06/28 05:51:19;;;;;;;14.30;10.67;;;17.10;93.00;;;;;;5095974;28;20089;-67
2021/06/28 05:53:46;;;;;;;14.87;11.13;;;17.20;92.90;;;;;;5096073;28;20043;-67
2021/06/28 05:56:12;;;;;;;12.63;10.50;;;17.20;92.90;;;;;;5095248;28;20075;-67
2021/06/28 05:58:37;;;;;;;11.40;9.67;;;17.20;92.90;;;;;;5096325;28;20052;-67
2021/06/28 06:01:03;;;;;;;12.13;10.20;;;17.20;92.80;;;;;;5096085;28;20113;-67
2021/06/28 06:03:29;;;;;;;13.60;10.57;;;17.30;92.80;;;;;;5094968;28;20052;-67
2021/06/28 06:05:55;;;;;;;14.10;10.13;;;17.40;92.80;;;;;;5095966;28;20479;-66
2021/06/28 06:08:24;;;;;;;12.53;9.87;;;17.40;92.60;;;;;;5095583;28;20041;-66
2021/06/28 06:10:52;;;;;;;12.40;9.37;;;17.50;92.60;;;;;;5095503;28;20048;-67
2021/06/28 06:13:18;;;;;;;12.77;9.20;;;17.70;92.60;;;;;;5095691;28;20040;-66
2021/06/28 06:15:44;;;;;;;12.00;10.23;;;17.70;92.30;;;;;;5095888;28;20051;-67
2021/06/28 06:18:10;;;;;;;12.57;9.83;;;17.70;92.20;;;;;;5094932;28;20052;-67
2021/06/28 06:20:35;;;;;;;10.57;9.00;;;17.80;92.20;;;;;;5095753;28;20476;-67
2021/06/28 06:23:01;;;;;;;11.63;10.53;;;17.80;92.10;;;;;;5094820;28;20052;-67
2021/06/28 06:25:27;;;;;;;12.33;9.40;;;17.80;91.90;;;;;;5095218;28;20504;-67
2021/06/28 06:27:52;;;;;;;13.07;11.20;;;17.80;91.70;;;;;;5095632;28;20445;-67
2021/06/28 06:30:18;;;;;;;14.20;10.90;;;17.80;91.80;;;;;;5094608;28;20051;-66
2021/06/28 06:32:44;;;;;;;12.17;10.17;;;17.80;91.80;;;;;;5095359;28;20067;-66
2021/06/28 06:35:10;;;;;;;12.93;10.77;;;17.90;91.80;;;;;;5095229;28;20485;-67
2021/06/28 06:37:36;;;;;;;10.43;9.03;;;17.90;92.10;;;;;;5094683;28;20081;-66
2021/06/28 06:40:04;;;;;;;11.13;9.57;;;17.90;91.70;;;;;;5095394;28;20404;-66
2021/06/28 06:42:30;;;;;;;16.47;10.77;;;17.90;91.70;;;;;;5095147;28;20055;-66
2021/06/28 06:44:55;;;;;;;13.63;11.00;;;17.90;91.70;;;;;;5094529;28;20408;-67
2021/06/28 06:47:21;;;;;;;13.23;11.83;;;18.00;91.70;;;;;;5094998;28;20130;-67
2021/06/28 06:49:48;;;;;;;15.83;10.73;;;18.00;91.60;;;;;;5095157;28;20068;-66
2021/06/28 06:52:14;;;;;;;11.30;9.77;;;18.10;91.50;;;;;;5092605;28;20044;-66
2021/06/28 06:54:40;;;;;;;12.87;11.60;;;18.10;91.40;;;;;;5094940;28;20052;-66
2021/06/28 06:57:07;;;;;;;12.87;10.40;;;18.10;91.30;;;;;;5094131;28;20461;-65
2021/06/28 06:59:33;;;;;;;12.70;11.10;;;18.20;91.20;;;;;;5093797;28;20147;-66
2021/06/28 07:02:01;;;;;;;13.80;11.33;;;18.20;91.20;;;;;;5094414;28;20105;-65
2021/06/28 07:04:27;;;;;;;12.60;11.27;;;18.30;91.10;;;;;;5093969;28;20044;-66
2021/06/28 07:06:53;;;;;;;12.47;11.23;;;18.40;90.90;;;;;;5093679;28;20093;-66
2021/06/28 07:09:18;;;;;;;15.23;11.30;;;18.40;90.70;;;;;;5094465;28;20059;-66
2021/06/28 07:11:44;;;;;;;13.47;11.90;;;18.40;90.70;;;;;;5094229;28;20051;-65
2021/06/28 07:14:10;;;;;;;13.87;12.13;;;18.50;90.80;;;;;;5093203;28;20052;-65
2021/06/28 07:16:36;;;;;;;16.37;11.87;;;18.50;90.80;;;;;;5094124;28;20127;-66
2021/06/28 07:19:04;;;;;;;14.07;11.57;;;18.60;90.60;;;;;;5094153;28;20135;-65
2021/06/28 07:21:33;;;;;;;13.20;11.20;;;18.70;90.50;;;;;;5093407;28;20044;-66
2021/06/28 07:23:59;;;;;;;13.03;11.67;;;18.70;90.30;;;;;;5094237;28;20100;-66
2021/06/28 07:26:25;;;;;;;13.87;11.00;;;18.80;90.20;;;;;;5092654;28;20055;-65
2021/06/28 07:28:54;;;;;;;16.07;12.60;;;18.80;90.10;;;;;;5094338;28;20122;-66
2021/06/28 07:31:21;;;;;;;12.53;11.23;;;18.80;90.00;;;;;;5093581;28;20051;-66
2021/06/28 07:33:50;;;;;;;14.23;12.83;;;18.90;90.10;;;;;;5092692;28;20052;-65
2021/06/28 07:36:15;;;;;;;14.13;11.73;;;19.00;90.00;;;;;;5092910;28;20040;-66
2021/06/28 07:38:41;;;;;;;15.00;11.43;;;19.00;89.70;;;;;;5093716;28;20054;-65
2021/06/28 07:41:08;;;;;;;14.07;11.00;;;19.00;89.80;;;;;;5092631;28;20089;-66
2021/06/28 07:43:34;;;;;;;14.50;11.80;;;19.10;90.00;;;;;;5093466;28;20039;-66
2021/06/28 07:46:00;;;;;;;13.07;11.13;;;19.10;89.90;;;;;;5090284;28;20055;-66
2021/06/28 07:48:26;;;;;;;13.47;11.63;;;19.20;89.70;;;;;;5092130;28;20043;-66
2021/06/28 07:50:51;;;;;;;13.40;11.77;;;19.20;89.60;;;;;;5093112;28;20485;-66
2021/06/28 07:53:18;;;;;;;15.23;11.53;;;19.20;89.60;;;;;;5092961;28;20124;-66
2021/06/28 07:55:44;;;;;;;12.80;11.60;;;19.30;89.70;;;;;;5092414;28;20126;-66
2021/06/28 07:58:11;;;;;;;13.47;11.83;;;19.40;89.60;;;;;;5092803;28;20043;-66
2021/06/28 08:00:38;;;;;;;13.10;11.70;;;19.50;89.50;;;;;;5092938;28;20080;-66
2021/06/28 08:03:06;;;;;;;12.90;11.60;;;19.50;89.30;;;;;;5091576;28;20404;-66
2021/06/28 08:05:32;;;;;;;16.47;12.33;;;19.50;89.20;;;;;;5092419;28;20058;-66
2021/06/28 08:07:58;;;;;;;14.93;12.07;;;19.70;89.00;;;;;;5092197;28;20597;-66
2021/06/28 08:10:24;;;;;;;13.20;11.50;;;19.70;88.70;;;;;;5091896;28;20048;-66
2021/06/28 08:12:51;;;;;;;13.77;11.97;;;19.70;88.70;;;;;;5093037;28;20127;-66
2021/06/28 08:15:21;;;;;;;15.20;12.73;;;19.80;88.80;;;;;;5072891;28;20554;-65
2021/06/28 08:17:48;;;;;;;12.33;11.00;;;19.90;88.50;;;;;;5073076;28;20045;-66
2021/06/28 08:20:15;;;;;;;13.77;11.97;;;20.00;88.40;;;;;;5072778;28;20515;-66
2021/06/28 08:22:43;;;;;;;14.50;11.77;;;20.10;88.40;;;;;;5083765;28;20040;-66
2021/06/28 08:25:09;;;;;;;14.37;12.97;;;20.30;87.60;;;;;;5092900;28;20064;-66
2021/06/28 08:27:35;;;;;;;12.63;11.33;;;20.30;86.90;;;;;;5093196;28;20048;-66
2021/06/28 08:30:06;;;;;;;13.30;11.10;;;20.40;86.90;;;;;;5092280;28;20125;-66
2021/06/28 08:32:32;;;;;;;13.73;12.32;;;20.50;86.80;;;;;;5093055;28;20052;-66
2021/06/28 08:34:59;;;;;;;13.83;12.07;;;20.60;86.70;;;;;;5092850;28;20103;-66
2021/06/28 08:37:25;;;;;;;13.53;12.20;;;20.70;86.80;;;;;;5091827;28;20052;-66
2021/06/28 08:39:51;;;;;;;13.90;12.43;;;20.80;86.20;;;;;;5093108;28;20150;-65
2021/06/28 08:42:18;;;;;;;13.63;12.33;;;20.90;85.90;;;;;;5092733;28;20052;-64
2021/06/28 08:44:45;;;;;;;11.90;10.67;;;21.00;85.80;;;;;;5091228;28;20056;-65
2021/06/28 08:47:11;;;;;;;14.37;12.90;;;21.00;85.90;;;;;;5092057;28;20504;-66
2021/06/28 08:49:39;;;;;;;13.80;12.40;;;21.10;86.10;;;;;;5092075;28;20048;-65
2021/06/28 08:52:06;;;;;;;15.90;12.20;;;21.30;85.90;;;;;;5084382;28;20047;-67
2021/06/28 08:54:32;;;;;;;16.48;11.85;;;21.40;85.70;;;;;;5087717;28;20044;-68
2021/06/28 08:56:58;;;;;;;13.40;12.00;;;21.60;85.30;;;;;;5088671;28;20048;-69
2021/06/28 08:59:24;;;;;;;12.75;11.45;;;21.70;84.70;;;;;;5087585;28;20079;-69
2021/06/28 09:01:51;;;;;;;11.50;10.35;;;21.70;84.40;;;;;;5089069;28;20095;-68
2021/06/28 09:04:17;;;;;;;11.98;10.75;;;21.90;84.30;;;;;;5088352;28;20067;-68
2021/06/28 09:06:42;;;;;;;13.43;10.93;;;21.90;83.10;;;;;;5088453;28;20131;-68
2021/06/28 09:09:10;;;;;;;13.00;11.73;;;22.00;82.80;;;;;;5087842;28;20472;-68
2021/06/28 09:11:38;;;;;;;12.48;11.18;;;22.00;82.50;;;;;;5089085;28;20494;-69
2021/06/28 09:14:06;;;;;;;12.43;10.27;;;22.10;82.10;;;;;;5088826;28;20048;-69
2021/06/28 09:16:33;;;;;;;10.02;9.02;;;22.10;82.60;;;;;;5086703;28;20043;-69
2021/06/28 09:19:02;;;;;;;15.30;11.43;;;22.30;83.20;;;;;;5087990;28;20162;-69
2021/06/28 09:21:52;;;;;;;14.07;12.68;;;22.40;82.30;;;;;;5088590;28;20193;-69
2021/06/28 09:24:27;;;;;;;11.55;10.40;;;22.50;81.70;;;;;;5085458;28;20076;-69
2021/06/28 09:26:56;;;;;;;12.10;9.80;;;22.70;83.20;;;;;;5087293;28;20052;-69
2021/06/28 09:29:33;;;;;;;13.32;11.93;;;23.00;83.90;;;;;;5088104;28;20139;-69
2021/06/28 09:32:08;;;;;;;11.32;10.23;;;23.20;82.50;;;;;;5088394;28;20056;-68
2021/06/28 09:34:34;;;;;;;11.32;10.13;;;23.50;81.90;;;;;;5088159;28;20168;-69
2021/06/28 09:37:00;;;;;;;12.82;11.63;;;23.80;80.90;;;;;;5087579;28;20496;-69
2021/06/28 09:39:36;;;;;;;11.77;10.70;;;24.10;79.40;;;;;;5087612;28;20070;-68
2021/06/28 09:42:07;;;;;;;9.60;8.57;;;24.20;76.60;;;;;;5087353;28;20055;-68
2021/06/28 09:44:39;;;;;;;10.30;9.30;;;24.30;74.30;;;;;;5087533;28;20083;-68
2021/06/28 09:47:15;;;;;;;;;;;24.50;73.00;;;;;;5087635;28;20048;-69
2021/06/28 09:49:58;;;;;;;9.60;8.70;;;24.60;71.50;;;;;;5087861;28;20008;-68
2021/06/28 09:52:30;;;;;;;9.82;8.82;;;24.80;71.80;;;;;;5087703;28;20051;-69
2021/06/28 09:55:14;;;;;;;10.30;9.30;;;24.90;70.90;;;;;;5087605;28;20138;-70
2021/06/28 09:58:13;;;;;;;12.13;9.52;;;25.00;69.60;;;;;;5091573;28;20134;-69
2021/06/28 10:00:43;;;;;;;10.82;9.93;;;25.10;69.10;;;;;;5091991;28;20104;-69
2021/06/28 10:03:37;;;;;;;11.27;10.05;;;25.30;68.50;;;;;;5090696;28;20427;-69
2021/06/28 10:08:50;;;;;;;9.57;8.57;;;25.10;67.50;;;;;;5091238;28;20040;-69
2021/06/28 10:11:26;;;;;;;10.18;7.93;;;25.10;67.80;;;;;;5091585;28;20040;-69
2021/06/28 10:13:57;;;;;;;9.38;8.45;;;25.10;68.10;;;;;;5092132;28;20048;-69
2021/06/28 10:16:26;;;;;;;10.70;9.70;;;25.20;68.60;;;;;;5090467;28;20511;-69
2021/06/28 10:18:54;;;;;;;10.27;8.57;;;25.30;68.20;;;;;;5092014;28;20075;-69
2021/06/28 10:21:19;;;;;;;11.25;10.15;;;25.50;68.50;;;;;;5091441;28;20190;-69
2021/06/28 10:23:45;;;;;;;10.25;9.02;;;25.60;67.50;;;;;;5090510;28;20135;-69
2021/06/28 10:26:11;;;;;;;11.73;9.25;;;25.60;67.70;;;;;;5091125;28;20389;-69
2021/06/28 10:28:38;;;;;;;8.85;7.95;;;25.70;67.60;;;;;;5095165;28;20048;-69
2021/06/28 10:31:05;;;;;;;9.98;8.98;;;25.70;67.50;;;;;;5094717;28;20066;-68
2021/06/28 10:33:32;;;;;;;9.50;8.50;;;25.70;65.90;;;;;;5095003;28;20047;-68
2021/06/28 10:36:07;;;;;;;9.30;7.90;;;25.70;65.70;;;;;;5095148;28;20492;-68
2021/06/28 10:38:45;;;;;;;9.15;8.07;;;25.70;66.30;;;;;;5094896;28;20519;-68
2021/06/28 10:41:11;;;;;;;9.25;8.35;;;25.60;65.70;;;;;;5094863;28;20051;-69
2021/06/28 10:43:39;;;;;;;10.20;8.43;;;25.70;65.70;;;;;;5094671;28;20051;-69
2021/06/28 10:46:08;;;;;;;12.38;10.18;;;25.80;65.70;;;;;;5094796;28;20068;-69
2021/06/28 10:48:49;;;;;;;9.05;8.15;;;25.80;65.90;;;;;;5094105;28;20052;-69
2021/06/28 10:51:19;;;;;;;8.75;6.97;;;26.00;66.50;;;;;;5093569;28;20044;-68
2021/06/28 10:53:44;;;;;;;8.98;8.07;;;26.10;66.50;;;;;;5094121;28;20136;-68
2021/06/28 10:56:30;;;;;;;8.48;7.57;;;26.20;66.40;;;;;;5094266;28;20131;-68
2021/06/28 10:59:07;;;;;;;8.82;7.93;;;26.30;66.30;;;;;;5093453;28;20040;-68
2021/06/28 11:01:44;;;;;;;8.18;7.47;;;26.40;65.10;;;;;;5094579;28;20081;-69
2021/06/28 11:04:11;;;;;;;8.10;7.30;;;26.40;64.70;;;;;;5093389;28;20055;-69
2021/06/28 11:06:47;;;;;;;9.82;8.90;;;26.40;64.70;;;;;;5093946;28;20040;-69
2021/06/28 11:09:13;;;;;;;9.35;8.20;;;26.40;63.80;;;;;;5091548;28;20048;-68
2021/06/28 11:11:47;;;;;;;10.30;9.30;;;26.40;63.40;;;;;;5090610;28;20584;-68
2021/06/28 11:14:19;;;;;;;9.55;8.32;;;26.50;62.70;;;;;;5092816;28;20044;-68
2021/06/28 11:17:25;;;;;;;10.48;9.40;;;26.50;63.10;;;;;;5093554;28;20139;-68
2021/06/28 11:20:06;;;;;;;10.68;8.73;;;26.40;63.20;;;;;;5086723;28;20056;-69
2021/06/28 11:22:36;;;;;;;10.55;8.52;;;26.40;63.20;;;;;;5092367;28;20056;-68
2021/06/28 11:25:07;;;;;;;10.10;9.10;;;26.50;63.30;;;;;;5092630;28;20505;-69
2021/06/28 11:27:38;;;;;;;10.60;9.43;;;26.50;62.00;;;;;;5092333;28;20054;-69
2021/06/28 11:30:15;;;;;;;9.80;8.82;;;26.60;61.60;;;;;;5093132;28;20485;-69
2021/06/28 11:33:06;;;;;;;11.90;10.32;;;26.60;60.90;;;;;;5090331;28;20428;-69
2021/06/28 11:35:37;;;;;;;9.50;8.60;;;26.60;60.80;;;;;;5070428;28;20078;-69
2021/06/28 11:38:23;;;;;;;10.43;8.23;;;26.70;60.70;;;;;;5070521;28;20041;-68
2021/06/28 11:41:01;;;;;;;9.77;8.85;;;26.70;61.00;;;;;;5070875;28;20086;-68
2021/06/28 11:43:42;;;;;;;9.55;8.35;;;26.80;60.70;;;;;;5073410;28;20049;-69
2021/06/28 11:46:17;;;;;;;9.02;8.10;;;26.80;60.50;;;;;;5073551;28;20045;-68
2021/06/28 11:48:49;;;;;;;11.02;8.90;;;26.80;60.70;;;;;;5072970;28;20179;-69
2021/06/28 11:51:18;;;;;;;10.02;7.40;;;27.00;60.60;;;;;;5073222;28;20049;-69
2021/06/28 11:53:51;;;;;;;8.48;7.68;;;27.00;60.40;;;;;;5072762;28;20040;-68
2021/06/28 11:56:25;;;;;;;10.95;8.43;;;27.10;60.80;;;;;;5073103;28;20047;-68
2021/06/28 11:58:59;;;;;;;9.32;8.43;;;27.20;59.80;;;;;;5073433;28;20044;-69
2021/06/28 12:01:32;;;;;;;9.25;8.15;;;27.20;59.60;;;;;;5072182;28;20102;-69
2021/06/28 12:03:59;;;;;;;9.65;8.60;;;27.30;60.30;;;;;;5073360;28;20076;-69
2021/06/28 12:06:28;;;;;;;8.82;7.93;;;27.30;59.10;;;;;;5073016;28;20053;-69
2021/06/28 12:09:09;;;;;;;8.77;7.85;;;27.30;58.70;;;;;;5072968;28;20058;-69
2021/06/28 12:11:53;;;;;;;8.20;7.40;;;27.50;58.80;;;;;;5073469;28;20049;-69
2021/06/28 12:14:28;;;;;;;9.95;8.32;;;27.60;57.50;;;;;;5072876;28;20044;-68
2021/06/28 12:16:54;;;;;;;8.50;6.55;;;27.60;57.50;;;;;;5072261;28;20098;-68
2021/06/28 12:19:20;;;;;;;7.75;7.10;;;27.70;57.80;;;;;;5072731;28;20044;-69
2021/06/28 12:21:45;;;;;;;8.00;7.20;;;27.80;58.00;;;;;;5072449;28;20055;-68
2021/06/28 12:24:16;;;;;;;7.80;7.10;;;27.80;58.40;;;;;;5072534;28;20414;-68
2021/06/28 12:26:58;;;;;;;;;;;27.90;57.70;;;;;;5073257;28;20051;-69
2021/06/28 12:29:37;;;;;;;8.52;7.72;;;27.80;58.30;;;;;;5071916;28;20281;-69
2021/06/28 12:32:22;;;;;;;9.40;7.07;;;27.70;58.30;;;;;;5072947;28;20071;-69
2021/06/28 12:35:09;;;;;;;7.38;6.68;;;27.40;58.30;;;;;;5072789;28;20185;-69
2021/06/28 12:37:38;;;;;;;8.25;7.45;;;27.30;59.40;;;;;;5080527;28;20484;-68
2021/06/28 12:40:29;;;;;;;8.57;7.78;;;27.40;59.00;;;;;;5091969;28;20051;-69
2021/06/28 12:43:02;;;;;;;7.57;6.88;;;27.50;57.90;;;;;;5091278;28;20059;-69